Aviation Digital Data Service (ADDS)

Output produced by TAFs form (1627 UTC 23 November 2017)
found at http://www.aviationweather.gov/adds/tafs/
 
METAR text: VHHH 231600Z 04013KT 9999 FEW038 18/07 Q1022 NOSIG
Conditions at: VHHH (HONG KONG INTL , HK) observed 1600 UTC 23 November 2017
Temperature: 18.0°C (64°F)
Dewpoint: 7.0°C (45°F) [RH = 49%]
Pressure (altimeter): 30.18 inches Hg (1022.0 mb)
Winds: from the NE (40 degrees) at 15 MPH (13 knots; 6.8 m/s)
Visibility: 6 or more miles (10+ km)
Ceiling: at least 12,000 feet AGL
Clouds: few clouds at 3800 feet AGL
Weather: no significant weather observed at this time

Forecast for: VHHH (HONG KONG INTL , HK)
Text: TAF VHHH 231100Z 2312/2418 02010KT 9999 FEW030 TX20/2406Z TN16/2323Z
Forecast period: 1200 UTC 23 November 2017 to 1800 UTC 24 November 2017
Forecast type: FROM: standard forecast or significant change
Winds: from the NNE (20 degrees) at 12 MPH (10 knots; 5.2 m/s)
Visibility: 6 or more miles (10+ km)
Clouds: few clouds at 3000 feet AGL
Weather: no significant weather forecast for this period